Time;durP1;ratioP1;P1;durP2;ratioP2;P2;SDS_P1;SDS_P2;PMS_P1;PMS_P2;Temp;Humidity;BMP_temperature;BMP_pressure;BME280_temperature;BME280_humidity;BME280_pressure;Samples;Min_cycle;Max_cycle;Signal;HPM_P1;HPM_P2
2023/01/21 00:00:56;;;;;;;3.73;2.83;;;;;;;-2.91;100.00;96476.72;5043916;28;20282;-78
2023/01/21 00:03:24;;;;;;;5.53;3.00;;;;;;;-3.00;100.00;96475.78;5049090;28;20212;-78
2023/01/21 00:05:51;;;;;;;4.83;2.63;;;;;;;-3.09;100.00;96488.03;5045994;28;20270;-78
2023/01/21 00:08:18;;;;;;;6.60;2.93;;;;;;;-3.21;100.00;96468.03;5049163;28;20205;-78
2023/01/21 00:10:45;;;;;;;5.27;3.20;;;;;;;-3.17;100.00;96474.72;5038462;28;20279;-78
2023/01/21 00:13:12;;;;;;;5.40;3.20;;;;;;;-3.21;100.00;96470.69;5041588;28;20198;-79
2023/01/21 00:15:39;;;;;;;7.70;3.17;;;;;;;-3.21;100.00;96473.31;5048836;28;20273;-78
2023/01/21 00:18:06;;;;;;;4.40;3.00;;;;;;;-3.21;100.00;96470.69;5041529;28;20227;-79
2023/01/21 00:20:36;;;;;;;4.13;2.90;;;;;;;-3.14;100.00;96486.78;5041168;28;20230;-79
2023/01/21 00:23:03;;;;;;;3.60;2.67;;;;;;;-3.21;100.00;96477.75;5046789;28;20244;-79
2023/01/21 00:25:30;;;;;;;4.83;3.07;;;;;;;-3.27;100.00;96481.81;5050020;28;20226;-79
2023/01/21 00:27:59;;;;;;;4.87;2.90;;;;;;;-3.34;100.00;96483.34;5048648;28;20226;-78
2023/01/21 00:30:26;;;;;;;8.23;2.90;;;;;;;-3.37;100.00;96480.16;5047260;28;20201;-79
2023/01/21 00:32:53;;;;;;;3.77;2.70;;;;;;;-3.27;100.00;96497.66;5047973;28;20241;-79
2023/01/21 00:35:20;;;;;;;3.60;2.70;;;;;;;-3.23;100.00;96485.81;5044125;28;20289;-79
2023/01/21 00:37:51;;;;;;;3.77;2.63;;;;;;;-3.13;100.00;96494.56;5050318;28;20207;-79
2023/01/21 00:40:18;;;;;;;4.93;2.80;;;;;;;-3.17;100.00;96484.44;5037774;28;20213;-79
2023/01/21 00:42:45;;;;;;;4.03;2.33;;;;;;;-3.10;100.00;96498.72;5044700;28;20190;-79
2023/01/21 00:45:13;;;;;;;3.10;2.43;;;;;;;-3.15;100.00;96479.84;5051555;28;20281;-79
2023/01/21 00:47:40;;;;;;;4.57;2.70;;;;;;;-3.12;100.00;96475.09;5035510;28;20207;-79
2023/01/21 00:50:08;;;;;;;3.67;2.73;;;;;;;-3.15;100.00;96475.38;5049045;28;20291;-79
2023/01/21 00:52:35;;;;;;;5.57;3.00;;;;;;;-3.11;100.00;96492.63;5036749;28;20219;-79
2023/01/21 00:55:04;;;;;;;4.47;3.20;;;;;;;-3.22;100.00;96476.94;5043666;28;20226;-79
2023/01/21 00:57:31;;;;;;;4.33;2.97;;;;;;;-3.29;100.00;96478.47;5043847;28;20303;-79
2023/01/21 00:59:59;;;;;;;4.80;3.13;;;;;;;-3.25;100.00;96490.44;5040222;28;20286;-79
2023/01/21 01:02:26;;;;;;;3.80;2.67;;;;;;;-3.28;100.00;96477.50;5047118;28;20196;-79
2023/01/21 01:04:53;;;;;;;4.43;3.00;;;;;;;-3.34;100.00;96472.78;5047490;28;20269;-79
2023/01/21 01:07:20;;;;;;;5.80;4.20;;;;;;;-3.33;100.00;96476.28;5051702;28;20200;-79
2023/01/21 01:09:47;;;;;;;4.97;3.37;;;;;;;-3.35;100.00;96472.94;5048640;28;20286;-78
2023/01/21 01:12:15;;;;;;;2.93;2.47;;;;;;;-3.43;100.00;96463.09;5048389;28;20210;-79
2023/01/21 01:14:42;;;;;;;3.90;3.00;;;;;;;-3.45;100.00;96465.03;5047719;28;20214;-79
2023/01/21 01:17:09;;;;;;;3.63;2.80;;;;;;;-3.41;100.00;96466.44;5047366;28;20204;-79
2023/01/21 01:19:36;;;;;;;8.77;4.50;;;;;;;-3.41;100.00;96476.97;5050738;28;20213;-79
2023/01/21 01:22:03;;;;;;;8.43;5.03;;;;;;;-141.59;100.00;61776.25;5040458;28;20198;-79
2023/01/21 01:24:31;;;;;;;6.83;4.40;;;;;;;-141.59;100.00;61776.25;5045686;28;20325;-79
2023/01/21 01:26:58;;;;;;;7.03;4.40;;;;;;;-141.59;100.00;61776.25;5045211;28;20214;-79
2023/01/21 01:29:27;;;;;;;7.13;4.17;;;;;;;-141.59;100.00;61776.25;5044413;28;20249;-78
2023/01/21 01:31:54;;;;;;;7.90;3.93;;;;;;;-141.59;100.00;61776.25;5047907;28;20321;-79
2023/01/21 01:34:21;;;;;;;9.23;4.20;;;;;;;-141.59;100.00;61776.25;5048328;28;20206;-78
2023/01/21 01:36:49;;;;;;;7.17;3.97;;;;;;;-141.59;100.00;61776.25;5041023;28;20217;-78
2023/01/21 01:39:16;;;;;;;6.57;3.57;;;;;;;-141.59;100.00;61776.25;5036401;28;20234;-78
2023/01/21 01:41:43;;;;;;;8.73;3.50;;;;;;;-141.59;100.00;61776.25;5051435;28;20209;-79
2023/01/21 01:44:42;;;;;;;4.60;3.30;;;;;;;-141.59;100.00;61776.25;5041016;28;20204;-78
2023/01/21 01:47:11;;;;;;;5.43;3.37;;;;;;;-141.59;100.00;61776.25;5046228;28;20264;-79
2023/01/21 01:49:38;;;;;;;3.93;3.07;;;;;;;-141.59;100.00;61776.25;5050515;28;20260;-78
2023/01/21 01:52:08;;;;;;;6.33;3.10;;;;;;;-141.59;100.00;61776.25;5035169;28;20267;-78
2023/01/21 01:54:41;;;;;;;4.47;3.13;;;;;;;-141.59;100.00;61776.25;5040306;28;20221;-78
2023/01/21 01:57:13;;;;;;;5.40;3.40;;;;;;;-141.59;100.00;61776.25;5041171;28;20205;-78
2023/01/21 01:59:42;;;;;;;5.23;2.70;;;;;;;-141.59;100.00;61776.25;5041117;28;21145;-78
2023/01/21 02:02:12;;;;;;;5.13;2.87;;;;;;;-141.59;100.00;61776.25;5045296;28;20202;-78
2023/01/21 02:04:43;;;;;;;3.57;2.50;;;;;;;-141.59;100.00;61776.25;5044886;28;20202;-78
2023/01/21 02:07:11;;;;;;;5.00;2.70;;;;;;;-141.59;100.00;61776.25;5046592;28;20291;-78
2023/01/21 02:09:38;;;;;;;9.00;3.50;;;;;;;-141.59;100.00;61776.25;5048583;28;20202;-78
2023/01/21 02:12:07;;;;;;;4.70;3.30;;;;;;;-141.59;100.00;61776.25;5045873;28;20256;-78
2023/01/21 02:14:41;;;;;;;4.20;2.90;;;;;;;-141.59;100.00;61776.25;5039824;28;20219;-78
2023/01/21 02:17:27;;;;;;;5.10;3.37;;;;;;;-141.59;100.00;61776.25;5048021;28;20214;-78
2023/01/21 02:20:24;;;;;;;5.20;3.40;;;;;;;-141.59;100.00;61776.25;5049869;28;20237;-78
2023/01/21 02:23:01;;;;;;;4.33;3.17;;;;;;;-141.59;100.00;61776.25;5042761;28;20213;-78
2023/01/21 02:25:55;;;;;;;6.73;3.67;;;;;;;-141.59;100.00;61776.25;5047009;28;20234;-79
2023/01/21 02:29:02;;;;;;;5.90;3.30;;;;;;;-141.59;100.00;61776.25;5031131;28;20209;-78
2023/01/21 02:31:49;;;;;;;6.83;3.53;;;;;;;-141.59;100.00;61776.25;5003765;28;20238;-78
2023/01/21 02:34:28;;;;;;;5.17;3.53;;;;;;;-141.59;100.00;61776.25;5038590;28;20215;-79
2023/01/21 02:37:05;;;;;;;6.47;3.37;;;;;;;-141.59;100.00;61776.25;5044589;28;20284;-79
2023/01/21 02:39:44;;;;;;;6.47;3.70;;;;;;;-141.59;100.00;61776.25;5047781;28;20201;-79
2023/01/21 02:42:17;;;;;;;5.17;3.17;;;;;;;-141.59;100.00;61776.25;5030025;28;20211;-78
2023/01/21 02:44:50;;;;;;;3.53;3.00;;;;;;;-141.59;100.00;61776.25;5031333;28;20211;-78
2023/01/21 02:47:25;;;;;;;5.17;3.20;;;;;;;-141.59;100.00;61776.25;5046109;28;20269;-78
2023/01/21 02:49:59;;;;;;;4.57;3.07;;;;;;;-141.59;100.00;61776.25;5048219;28;20200;-79
2023/01/21 02:52:27;;;;;;;4.47;3.20;;;;;;;-141.59;100.00;61776.25;5035279;28;20223;-78
2023/01/21 02:54:56;;;;;;;4.50;3.00;;;;;;;-141.59;100.00;61776.25;5032437;28;20207;-79
2023/01/21 02:57:38;;;;;;;4.00;2.77;;;;;;;-141.59;100.00;61776.25;5044267;28;20228;-79
2023/01/21 03:00:10;;;;;;;4.23;3.07;;;;;;;-141.59;100.00;61776.25;5046395;28;20276;-79
2023/01/21 03:03:09;;;;;;;4.40;2.80;;;;;;;-141.59;100.00;61776.25;5046190;28;20209;-79
2023/01/21 03:05:55;;;;;;;5.83;3.03;;;;;;;-141.59;100.00;61776.25;5035105;28;20236;-79
2023/01/21 03:08:25;;;;;;;5.47;3.70;;;;;;;-141.59;100.00;61776.25;5032601;28;20206;-79
2023/01/21 03:11:02;;;;;;;5.27;3.60;;;;;;;-141.59;100.00;61776.25;5047619;28;20216;-79
2023/01/21 03:19:13;;;;;;;7.40;4.10;;;;;;;-141.59;100.00;61776.25;5041127;28;20221;-79
2023/01/21 03:21:42;;;;;;;5.40;3.50;;;;;;;-141.59;100.00;61776.25;5032509;28;20239;-79
2023/01/21 03:24:11;;;;;;;4.60;2.93;;;;;;;-141.59;100.00;61776.25;5033809;28;20234;-79
2023/01/21 03:26:42;;;;;;;6.47;3.13;;;;;;;-141.59;100.00;61776.25;5041756;28;20203;-79
2023/01/21 03:29:13;;;;;;;5.17;2.73;;;;;;;-141.59;100.00;61776.25;5037472;28;20227;-79
2023/01/21 03:31:45;;;;;;;5.57;2.40;;;;;;;-141.59;100.00;61776.25;5046139;28;20219;-79
2023/01/21 03:34:15;;;;;;;4.93;3.37;;;;;;;-141.59;100.00;61776.25;5034281;28;20234;-79
2023/01/21 03:36:51;;;;;;;4.30;3.07;;;;;;;-141.59;100.00;61776.25;5043413;28;20209;-79
2023/01/21 03:39:25;;;;;;;3.70;3.20;;;;;;;-141.59;100.00;61776.25;5048618;28;20210;-79
2023/01/21 03:41:52;;;;;;;7.53;2.87;;;;;;;-141.59;100.00;61776.25;5045295;28;20204;-79
2023/01/21 03:44:19;;;;;;;4.40;3.20;;;;;;;-141.59;100.00;61776.25;5041582;28;20273;-79
2023/01/21 03:46:58;;;;;;;4.03;2.97;;;;;;;-141.59;100.00;61776.25;5051680;28;20244;-78
2023/01/21 03:49:32;;;;;;;5.63;3.23;;;;;;;-141.59;100.00;61776.25;5040273;28;20206;-79
2023/01/21 03:52:02;;;;;;;3.53;2.87;;;;;;;-141.59;100.00;61776.25;5044192;28;20251;-79
2023/01/21 03:54:30;;;;;;;3.47;2.80;;;;;;;-141.59;100.00;61776.25;5036767;28;20208;-79
2023/01/21 03:56:57;;;;;;;5.47;3.10;;;;;;;-141.59;100.00;61776.25;5045787;28;20207;-79
2023/01/21 03:59:25;;;;;;;4.27;2.83;;;;;;;-141.59;100.00;61776.25;5042384;28;20267;-79
2023/01/21 04:01:52;;;;;;;4.67;3.23;;;;;;;-141.59;100.00;61776.25;5045336;28;20210;-79
2023/01/21 04:04:19;;;;;;;3.50;2.80;;;;;;;-141.59;100.00;61776.25;5046535;28;20232;-79
2023/01/21 04:06:46;;;;;;;5.07;3.40;;;;;;;-141.59;100.00;61776.25;5044163;28;20210;-79
2023/01/21 04:09:14;;;;;;;4.77;3.10;;;;;;;-141.59;100.00;61776.25;5043620;28;20294;-79
2023/01/21 04:11:41;;;;;;;4.90;3.43;;;;;;;-141.59;100.00;61776.25;5035402;28;20228;-79
2023/01/21 04:14:08;;;;;;;5.20;3.33;;;;;;;-141.59;100.00;61776.25;5051390;28;20203;-79
2023/01/21 04:16:35;;;;;;;3.57;2.80;;;;;;;-141.59;100.00;61776.25;5046897;28;20207;-79
2023/01/21 04:19:02;;;;;;;4.10;3.10;;;;;;;-141.59;100.00;61776.25;5043367;28;20202;-79
2023/01/21 04:21:29;;;;;;;4.37;2.90;;;;;;;-141.59;100.00;61776.25;5045691;28;20200;-79
2023/01/21 04:23:56;;;;;;;4.07;2.70;;;;;;;-141.59;100.00;61776.25;5046307;28;20205;-79
2023/01/21 04:26:25;;;;;;;5.60;3.03;;;;;;;-141.59;100.00;61776.25;5041966;28;20244;-79
2023/01/21 04:28:52;;;;;;;3.87;2.70;;;;;;;-141.59;100.00;61776.25;5050267;28;20214;-79
2023/01/21 04:31:18;;;;;;;3.77;2.67;;;;;;;-141.59;100.00;61776.25;5039281;28;20224;-79
2023/01/21 04:33:45;;;;;;;5.87;3.10;;;;;;;-141.59;100.00;61776.25;5043458;28;20230;-79
2023/01/21 04:36:13;;;;;;;5.23;3.60;;;;;;;-141.59;100.00;61776.25;5044034;28;20217;-79
2023/01/21 04:38:40;;;;;;;7.27;3.73;;;;;;;-141.59;100.00;61776.25;5047579;28;20224;-79
2023/01/21 04:41:07;;;;;;;7.20;3.70;;;;;;;-141.59;100.00;61776.25;5049304;28;20202;-79
2023/01/21 04:43:35;;;;;;;4.70;3.27;;;;;;;-141.59;100.00;61776.25;5034614;28;20265;-79
2023/01/21 04:46:02;;;;;;;6.60;3.80;;;;;;;-141.59;100.00;61776.25;5044144;28;20205;-79
2023/01/21 04:48:30;;;;;;;7.17;4.10;;;;;;;-141.59;100.00;61776.25;5047436;28;20270;-79
2023/01/21 04:50:57;;;;;;;4.20;3.77;;;;;;;-141.59;100.00;61776.25;5049286;28;20268;-79
2023/01/21 04:53:24;;;;;;;9.67;4.63;;;;;;;-141.59;100.00;61776.25;5047064;28;20272;-79
2023/01/21 04:55:51;;;;;;;6.20;4.50;;;;;;;-141.59;100.00;61776.25;5048201;28;20213;-79
2023/01/21 04:58:18;;;;;;;7.50;4.23;;;;;;;-141.59;100.00;61776.25;5047236;28;20217;-79
2023/01/21 05:00:46;;;;;;;6.97;4.57;;;;;;;-141.59;100.00;61776.25;5046379;28;20293;-79
2023/01/21 05:03:13;;;;;;;4.93;3.50;;;;;;;-141.59;100.00;61776.25;5044588;28;20204;-80
2023/01/21 05:05:40;;;;;;;5.63;3.40;;;;;;;-141.59;100.00;61776.25;5048497;28;20224;-79
2023/01/21 05:08:08;;;;;;;12.37;6.63;;;;;;;-141.59;100.00;61776.25;5050610;28;20191;-79
2023/01/21 05:10:35;;;;;;;6.60;4.03;;;;;;;-141.59;100.00;61776.25;5036941;28;20333;-79
2023/01/21 05:13:02;;;;;;;5.03;3.27;;;;;;;-141.59;100.00;61776.25;5040108;28;20222;-79
2023/01/21 05:15:29;;;;;;;4.47;3.10;;;;;;;-141.59;100.00;61776.25;5035080;28;20217;-79
2023/01/21 05:17:57;;;;;;;6.80;4.63;;;;;;;-141.59;100.00;61776.25;5049149;28;20208;-79
2023/01/21 05:20:24;;;;;;;5.20;4.40;;;;;;;-141.59;100.00;61776.25;5049064;28;20209;-79
2023/01/21 05:22:51;;;;;;;6.90;4.70;;;;;;;-141.59;100.00;61776.25;5049740;28;20205;-79
2023/01/21 05:25:18;;;;;;;11.27;5.07;;;;;;;-141.59;100.00;61776.25;5050701;28;20249;-79
2023/01/21 05:27:51;;;;;;;7.70;4.60;;;;;;;-141.59;100.00;61776.25;5048259;28;20210;-80
2023/01/21 05:30:19;;;;;;;5.17;4.20;;;;;;;-141.59;100.00;61776.25;5046489;28;20248;-80
2023/01/21 05:32:50;;;;;;;8.33;4.57;;;;;;;-141.59;100.00;61776.25;5042687;28;20230;-79
2023/01/21 05:35:19;;;;;;;6.70;4.50;;;;;;;-141.59;100.00;61776.25;5047433;28;20256;-80
2023/01/21 05:37:46;;;;;;;7.00;4.47;;;;;;;-141.59;100.00;61776.25;5041591;28;20197;-80
2023/01/21 05:40:14;;;;;;;3.97;3.13;;;;;;;-141.59;100.00;61776.25;5038242;28;20213;-80
2023/01/21 05:42:42;;;;;;;4.60;3.33;;;;;;;-141.59;100.00;61776.25;5041323;28;20209;-80
2023/01/21 05:45:11;;;;;;;4.97;3.57;;;;;;;-141.59;100.00;61776.25;5047412;28;20233;-80
2023/01/21 05:47:38;;;;;;;7.43;3.90;;;;;;;-141.59;100.00;61776.25;5033038;28;20196;-80
2023/01/21 05:50:06;;;;;;;5.73;3.70;;;;;;;-141.59;100.00;61776.25;5050927;28;20209;-80
2023/01/21 05:52:35;;;;;;;5.40;3.50;;;;;;;-141.59;100.00;61776.25;5046267;28;20219;-80
2023/01/21 05:55:02;;;;;;;6.03;3.70;;;;;;;-141.59;100.00;61776.25;5043694;28;20218;-80
2023/01/21 05:57:29;;;;;;;5.87;3.27;;;;;;;-141.59;100.00;61776.25;5048389;28;20206;-80
2023/01/21 05:59:56;;;;;;;6.53;3.60;;;;;;;-141.59;100.00;61776.25;5048794;28;20216;-80
2023/01/21 06:02:24;;;;;;;5.37;3.10;;;;;;;-141.59;100.00;61776.25;5047087;28;20198;-80
2023/01/21 06:04:51;;;;;;;4.13;2.83;;;;;;;-141.59;100.00;61776.25;5043545;28;20555;-80
2023/01/21 06:07:18;;;;;;;5.63;3.50;;;;;;;-141.59;100.00;61776.25;5046897;28;20202;-80
2023/01/21 06:09:46;;;;;;;5.20;3.57;;;;;;;-141.59;100.00;61776.25;5044212;28;20211;-80
2023/01/21 06:12:13;;;;;;;5.37;3.47;;;;;;;-141.59;100.00;61776.25;5044024;28;20199;-80
2023/01/21 06:14:40;;;;;;;7.40;3.83;;;;;;;-141.59;100.00;61776.25;5048376;28;20204;-79
2023/01/21 06:17:07;;;;;;;7.30;4.17;;;;;;;-141.59;100.00;61776.25;5039192;28;20190;-80
2023/01/21 06:19:34;;;;;;;5.87;3.80;;;;;;;-141.59;100.00;61776.25;5047935;28;20222;-80
2023/01/21 06:22:01;;;;;;;7.13;3.90;;;;;;;-141.59;100.00;61776.25;5044108;28;20249;-80
2023/01/21 06:24:28;;;;;;;6.57;3.90;;;;;;;-141.59;100.00;61776.25;5048278;28;20315;-80
2023/01/21 06:26:56;;;;;;;7.00;5.10;;;;;;;-141.59;100.00;61776.25;5045922;28;20210;-80
2023/01/21 06:29:24;;;;;;;9.97;5.03;;;;;;;-141.59;100.00;61776.25;5051511;28;20304;-80
2023/01/21 06:31:50;;;;;;;10.47;6.13;;;;;;;-141.59;100.00;61776.25;5045036;28;20223;-80
2023/01/21 06:34:18;;;;;;;6.93;4.57;;;;;;;-141.59;100.00;61776.25;5040633;28;20233;-80
2023/01/21 06:36:45;;;;;;;6.70;4.63;;;;;;;-141.59;100.00;61776.25;5040811;28;20216;-80
2023/01/21 06:39:12;;;;;;;5.57;3.80;;;;;;;-141.59;100.00;61776.25;5036230;28;20289;-80
2023/01/21 06:41:39;;;;;;;7.37;4.30;;;;;;;-141.59;100.00;61776.25;5043209;28;20212;-79
2023/01/21 06:44:10;;;;;;;5.77;4.10;;;;;;;-141.59;100.00;61776.25;5044300;28;20251;-79
2023/01/21 06:46:37;;;;;;;8.23;3.93;;;;;;;-141.59;100.00;61776.25;5046332;28;20264;-80
2023/01/21 06:49:05;;;;;;;5.97;3.80;;;;;;;-141.59;100.00;61776.25;5044851;28;20204;-79
2023/01/21 06:51:32;;;;;;;5.03;3.67;;;;;;;-141.59;100.00;61776.25;5045784;28;20220;-79
2023/01/21 06:53:59;;;;;;;6.93;3.87;;;;;;;-141.59;100.00;61776.25;5041173;28;20220;-80
2023/01/21 06:56:26;;;;;;;4.60;3.20;;;;;;;-141.59;100.00;61776.25;5046032;28;20192;-79
2023/01/21 06:58:53;;;;;;;6.87;3.90;;;;;;;-141.59;100.00;61776.25;5046981;28;20202;-80
2023/01/21 07:01:22;;;;;;;5.70;3.43;;;;;;;-141.59;100.00;61776.25;5045200;28;20206;-80
2023/01/21 07:03:49;;;;;;;7.30;4.77;;;;;;;-141.59;100.00;61776.25;5041695;28;20211;-80
2023/01/21 07:06:16;;;;;;;5.50;3.63;;;;;;;-141.59;100.00;61776.25;5035117;28;20217;-80
2023/01/21 07:08:43;;;;;;;4.77;3.03;;;;;;;-141.59;100.00;61776.25;5043517;28;20205;-80
2023/01/21 07:11:10;;;;;;;5.67;3.13;;;;;;;-141.59;100.00;61776.25;5047039;28;20264;-80
2023/01/21 07:13:37;;;;;;;9.57;4.30;;;;;;;-141.59;100.00;61776.25;5051572;28;20250;-80
2023/01/21 07:16:08;;;;;;;7.77;4.50;;;;;;;-141.59;100.00;61776.25;5039054;28;20207;-80
2023/01/21 07:18:37;;;;;;;7.53;4.03;;;;;;;-141.59;100.00;61776.25;5040754;28;20210;-80
2023/01/21 07:21:04;;;;;;;8.43;4.07;;;;;;;-141.59;100.00;61776.25;5044119;28;20217;-80
2023/01/21 07:23:32;;;;;;;5.00;3.50;;;;;;;-141.59;100.00;61776.25;5041966;28;20229;-80
2023/01/21 07:25:58;;;;;;;5.80;3.80;;;;;;;-141.59;100.00;61776.25;5046522;28;20238;-80
2023/01/21 07:28:26;;;;;;;5.70;3.37;;;;;;;-141.59;100.00;61776.25;5038342;28;20205;-79
2023/01/21 07:30:53;;;;;;;3.97;3.00;;;;;;;-141.59;100.00;61776.25;5044336;28;20199;-80
2023/01/21 07:33:22;;;;;;;8.23;5.60;;;;;;;-141.59;100.00;61776.25;5048288;28;20226;-80
2023/01/21 07:35:50;;;;;;;7.40;3.97;;;;;;;-141.59;100.00;61776.25;5040221;28;20237;-79
2023/01/21 07:38:17;;;;;;;6.33;4.33;;;;;;;-141.59;100.00;61776.25;5041416;28;20202;-80
2023/01/21 07:40:47;;;;;;;7.07;4.00;;;;;;;-141.59;100.00;61776.25;5045401;28;20202;-80
2023/01/21 07:43:14;;;;;;;6.50;4.57;;;;;;;-141.59;100.00;61776.25;5047532;28;20285;-80
2023/01/21 07:45:41;;;;;;;9.67;4.57;;;;;;;-141.59;100.00;61776.25;5044325;28;20200;-80
2023/01/21 07:48:09;;;;;;;7.03;4.47;;;;;;;-141.59;100.00;61776.25;5047302;28;20271;-80
2023/01/21 07:50:36;;;;;;;9.03;4.87;;;;;;;-141.59;100.00;61776.25;5040976;28;20206;-80
2023/01/21 07:53:04;;;;;;;8.03;4.10;;;;;;;-141.59;100.00;61776.25;5045135;28;20330;-80
2023/01/21 07:55:32;;;;;;;7.30;3.90;;;;;;;-141.59;100.00;61776.25;5043219;28;20213;-80
2023/01/21 07:57:59;;;;;;;10.40;3.93;;;;;;;-141.59;100.00;61776.25;5044887;28;20216;-80
2023/01/21 08:00:28;;;;;;;10.57;4.10;;;;;;;-141.59;100.00;61776.25;5041469;28;20213;-80
2023/01/21 08:02:55;;;;;;;6.40;3.70;;;;;;;-141.59;100.00;61776.25;5042933;28;20233;-79
2023/01/21 08:05:22;;;;;;;5.27;3.37;;;;;;;-141.59;100.00;61776.25;5048162;28;20207;-79
2023/01/21 08:07:50;;;;;;;7.57;4.00;;;;;;;-141.59;100.00;61776.25;5040385;28;20241;-80
2023/01/21 08:10:21;;;;;;;9.70;6.03;;;;;;;-141.59;100.00;61776.25;5045090;28;20230;-80
2023/01/21 08:12:47;;;;;;;9.80;5.03;;;;;;;-141.59;100.00;61776.25;5044279;28;20255;-80
2023/01/21 08:15:14;;;;;;;10.10;6.03;;;;;;;-141.59;100.00;61776.25;5037423;28;20385;-80
2023/01/21 08:17:43;;;;;;;8.83;5.37;;;;;;;-141.59;100.00;61776.25;5044098;28;20209;-80
2023/01/21 08:20:12;;;;;;;8.00;4.37;;;;;;;-141.59;100.00;61776.25;5040067;28;20312;-80
2023/01/21 08:22:39;;;;;;;8.93;4.50;;;;;;;-141.59;100.00;61776.25;5040300;28;20221;-80
2023/01/21 08:25:10;;;;;;;7.33;4.47;;;;;;;-141.59;100.00;61776.25;5034000;28;20241;-80
2023/01/21 08:27:39;;;;;;;7.73;5.30;;;;;;;-141.59;100.00;61776.25;5039974;28;20204;-80
2023/01/21 08:30:07;;;;;;;9.40;6.00;;;;;;;-141.59;100.00;61776.25;5037724;28;20206;-80
2023/01/21 08:32:35;;;;;;;7.87;5.20;;;;;;;-141.59;100.00;61776.25;5043217;28;20222;-80
2023/01/21 08:35:02;;;;;;;8.30;5.00;;;;;;;-141.59;100.00;61776.25;5042863;28;20303;-79
2023/01/21 08:37:30;;;;;;;12.10;4.87;;;;;;;-141.59;100.00;61776.25;5039286;28;20261;-80
2023/01/21 08:39:57;;;;;;;9.43;4.73;;;;;;;-141.59;100.00;61776.25;5041339;28;20218;-79
2023/01/21 08:42:24;;;;;;;8.50;4.77;;;;;;;-141.59;100.00;61776.25;5039405;28;20206;-79
2023/01/21 08:44:52;;;;;;;9.53;4.70;;;;;;;-141.59;100.00;61776.25;5049306;28;20197;-79
2023/01/21 08:47:20;;;;;;;6.30;4.03;;;;;;;-141.59;100.00;61776.25;5044931;28;20206;-79
2023/01/21 08:49:47;;;;;;;6.83;4.00;;;;;;;-141.59;100.00;61776.25;5038268;28;20195;-79
2023/01/21 08:52:15;;;;;;;7.47;4.40;;;;;;;-141.59;100.00;61776.25;5043967;28;20257;-79
2023/01/21 08:54:42;;;;;;;6.63;3.83;;;;;;;-141.59;100.00;61776.25;5042233;28;20322;-79
2023/01/21 08:57:10;;;;;;;5.53;4.07;;;;;;;-141.59;100.00;61776.25;5040362;28;20234;-79
2023/01/21 08:59:37;;;;;;;4.00;3.47;;;;;;;-141.59;100.00;61776.25;5038120;28;20247;-79
2023/01/21 09:02:07;;;;;;;5.27;3.63;;;;;;;-141.59;100.00;61776.25;5033785;28;20251;-79
2023/01/21 09:04:35;;;;;;;4.50;3.73;;;;;;;-141.59;100.00;61776.25;5046565;28;20268;-78
2023/01/21 09:07:03;;;;;;;4.83;3.50;;;;;;;-141.59;100.00;61776.25;5047244;28;20206;-78
2023/01/21 09:09:30;;;;;;;4.80;3.70;;;;;;;-141.59;100.00;61776.25;5041388;28;20205;-78
2023/01/21 09:11:57;;;;;;;7.50;4.10;;;;;;;-141.59;100.00;61776.25;5044044;28;20245;-78
2023/01/21 09:14:24;;;;;;;5.20;3.60;;;;;;;-141.59;100.00;61776.25;5037361;28;20283;-78
2023/01/21 09:16:54;;;;;;;7.63;4.23;;;;;;;-141.59;100.00;61776.25;5030344;28;20205;-78
2023/01/21 09:19:23;;;;;;;7.83;3.70;;;;;;;-141.59;100.00;61776.25;5040214;28;20216;-78
2023/01/21 09:21:54;;;;;;;5.73;4.27;;;;;;;-141.59;100.00;61776.25;5039570;28;20336;-78
2023/01/21 09:24:21;;;;;;;8.03;3.63;;;;;;;-141.59;100.00;61776.25;5040304;28;20284;-78
2023/01/21 09:26:48;;;;;;;6.63;3.97;;;;;;;-141.59;100.00;61776.25;5051235;28;20213;-78
2023/01/21 09:29:15;;;;;;;6.80;4.10;;;;;;;-141.59;100.00;61776.25;5042420;28;20209;-78
2023/01/21 09:31:42;;;;;;;5.50;4.13;;;;;;;-141.59;100.00;61776.25;5043322;28;20293;-78
2023/01/21 09:34:10;;;;;;;5.97;4.47;;;;;;;-141.59;100.00;61776.25;5034560;28;20223;-78
2023/01/21 09:36:38;;;;;;;6.33;4.67;;;;;;;-141.59;100.00;61776.25;5043980;28;20209;-78
2023/01/21 09:39:07;;;;;;;9.40;4.30;;;;;;;-141.59;100.00;61776.25;5031162;28;20214;-78
2023/01/21 09:41:37;;;;;;;5.50;4.40;;;;;;;-141.59;100.00;61776.25;5047474;28;20289;-78
2023/01/21 09:44:14;;;;;;;7.50;4.57;;;;;;;-141.59;100.00;61776.25;5042097;28;20209;-78
2023/01/21 09:46:49;;;;;;;7.10;4.73;;;;;;;-141.59;100.00;61776.25;5045543;28;20208;-78
2023/01/21 09:49:20;;;;;;;10.77;5.43;;;;;;;-141.59;100.00;61776.25;5044555;28;20244;-78
2023/01/21 09:51:54;;;;;;;7.13;5.33;;;;;;;-141.59;100.00;61776.25;5042143;28;20197;-78
2023/01/21 09:54:30;;;;;;;7.30;5.23;;;;;;;-141.59;100.00;61776.25;5046979;28;20225;-78
2023/01/21 09:57:22;;;;;;;8.20;5.47;;;;;;;-141.59;100.00;61776.25;5032698;28;20194;-78
2023/01/21 10:00:01;;;;;;;9.27;5.73;;;;;;;-141.59;100.00;61776.25;5041951;28;20202;-78
2023/01/21 10:02:37;;;;;;;7.80;5.80;;;;;;;-141.59;100.00;61776.25;5033308;28;20233;-77
2023/01/21 10:05:37;;;;;;;8.17;6.03;;;;;;;-141.59;100.00;61776.25;5038224;28;20206;-78
2023/01/21 10:08:14;;;;;;;8.67;5.93;;;;;;;-141.59;100.00;61776.25;5013047;28;20223;-78
2023/01/21 10:10:50;;;;;;;9.10;5.77;;;;;;;-141.59;100.00;61776.25;5038895;28;20257;-78
2023/01/21 10:13:42;;;;;;;10.37;6.20;;;;;;;-141.59;100.00;61776.25;5043242;28;20210;-78
2023/01/21 10:16:16;;;;;;;8.13;6.10;;;;;;;-141.59;100.00;61776.25;5035024;28;20202;-78
2023/01/21 10:18:47;;;;;;;9.97;6.73;;;;;;;-141.59;100.00;61776.25;5041118;28;20215;-78
2023/01/21 10:21:23;;;;;;;9.67;7.30;;;;;;;-141.59;100.00;61776.25;5045337;28;20226;-78
2023/01/21 10:23:58;;;;;;;13.87;7.10;;;;;;;-141.59;100.00;61776.25;5042701;28;20194;-78
2023/01/21 10:26:28;;;;;;;10.07;6.97;;;;;;;-141.59;100.00;61776.25;5042520;28;20270;-77
2023/01/21 10:28:56;;;;;;;8.70;6.87;;;;;;;-141.59;100.00;61776.25;5047272;28;20260;-78
2023/01/21 10:31:25;;;;;;;12.00;7.23;;;;;;;-141.59;100.00;61776.25;5037954;28;20217;-78
2023/01/21 10:33:52;;;;;;;10.90;6.80;;;;;;;-141.59;100.00;61776.25;5033925;28;20269;-77
2023/01/21 10:36:34;;;;;;;12.00;7.37;;;;;;;-141.59;100.00;61776.25;5045150;28;20203;-78
2023/01/21 10:39:12;;;;;;;10.63;7.23;;;;;;;-141.59;100.00;61776.25;5057064;28;20241;-78
2023/01/21 10:41:59;;;;;;;10.80;7.77;;;;;;;-141.59;100.00;61776.25;5043073;28;20205;-78
2023/01/21 10:44:36;;;;;;;10.40;7.57;;;;;;;-141.59;100.00;61776.25;5034511;28;20205;-78
2023/01/21 10:47:11;;;;;;;13.13;8.67;;;;;;;-141.59;100.00;61776.25;5040540;28;20202;-78
2023/01/21 10:49:52;;;;;;;13.77;8.07;;;;;;;-141.59;100.00;61776.25;5058160;28;20293;-78
2023/01/21 10:52:26;;;;;;;11.93;8.67;;;;;;;-141.59;100.00;61776.25;5057795;28;21105;-79
2023/01/21 10:55:00;;;;;;;11.90;8.80;;;;;;;-141.59;100.00;61776.25;5038358;28;20228;-79
2023/01/21 10:57:39;;;;;;;11.90;8.80;;;;;;;-141.59;100.00;61776.25;5030304;28;20213;-79
2023/01/21 11:00:18;;;;;;;15.43;9.23;;;;;;;-141.59;100.00;61776.25;5040873;28;20237;-79
2023/01/21 11:02:49;;;;;;;13.37;8.80;;;;;;;-141.59;100.00;61776.25;5042523;28;20210;-79
2023/01/21 11:05:17;;;;;;;11.40;8.57;;;;;;;-141.59;100.00;61776.25;5044796;28;20202;-78
2023/01/21 11:07:46;;;;;;;12.30;8.87;;;;;;;-141.59;100.00;61776.25;5044094;28;20197;-79
2023/01/21 11:10:20;;;;;;;13.00;8.57;;;;;;;-141.59;100.00;61776.25;5040673;28;20261;-79
2023/01/21 11:12:47;;;;;;;14.67;9.53;;;;;;;-141.59;100.00;61776.25;5042709;28;20297;-78
2023/01/21 11:15:17;;;;;;;13.93;9.70;;;;;;;-141.59;100.00;61776.25;5041814;28;20495;-79
2023/01/21 11:17:47;;;;;;;11.80;8.30;;;;;;;-141.59;100.00;61776.25;5038283;28;20198;-78
2023/01/21 11:20:32;;;;;;;13.43;9.90;;;;;;;-141.59;100.00;61776.25;5042537;28;20225;-78
2023/01/21 11:23:01;;;;;;;17.47;9.33;;;;;;;-141.59;100.00;61776.25;5028948;28;20281;-79
2023/01/21 11:25:37;;;;;;;14.17;10.00;;;;;;;-141.59;100.00;61776.25;5033966;28;20226;-79
2023/01/21 11:28:05;;;;;;;13.63;9.53;;;;;;;-141.59;100.00;61776.25;5040814;28;20202;-78